Saint Kilda, New Zealand
Current Conditions -  °F | °C
As of 9:30 AM on Saturday 20 Dec 2014 (Local Time) from NZCH Reporting Station
Few Clouds Few Clouds  
Wind Chill: 75°   Ceiling: Unl
Heat Index: 75°   Visibility: 6mi
Dew Point: 59°   Wind: 13mph
Humidity: 57%   Direction: 30°NNE
Pressure: 29.74"   Gusts: NA
Location:  45.9°S, 170.5°E
Report Text: NZCH 192130Z AUTO 03011KT 9999 FEW095/// 24/15 Q1007 NOSIG
Loading
Personal Weather Stations






























Interactive Weather Map New forecast layout! Learn more

10-Day Weather Forecast

Advertisements
Track Severe Weather on mobile